Time;durP1;ratioP1;P1;durP2;ratioP2;P2;SDS_P1;SDS_P2;PMS_P1;PMS_P2;Temp;Humidity;BMP_temperature;BMP_pressure;BME280_temperature;BME280_humidity;BME280_pressure;Samples;Min_cycle;Max_cycle;Signal;HPM_P1;HPM_P2
2020/12/24 00:20:43;;;;;;;1.40;0.70;;;13.30;77.10;;;;;;6184986;23;20828;-73
2020/12/24 00:27:15;;;;;;;2.43;1.03;;;13.30;77.70;;;;;;6183677;23;20979;-73
2020/12/24 00:30:20;;;;;;;1.67;1.00;;;13.20;77.50;;;;;;6185842;23;20371;-73
2020/12/24 00:33:34;;;;;;;2.10;0.90;;;13.30;77.70;;;;;;6185835;23;20410;-73
2020/12/24 00:36:03;;;;;;;1.83;0.83;;;13.20;78.60;;;;;;6183952;23;20379;-72
2020/12/24 00:41:52;;;;;;;1.60;1.00;;;13.30;77.90;;;;;;6184833;23;20807;-73
2020/12/24 00:44:19;;;;;;;2.33;1.20;;;13.20;77.70;;;;;;6183936;23;20191;-72
2020/12/24 00:46:45;;;;;;;2.07;0.90;;;13.20;77.60;;;;;;6185288;23;20387;-72
2020/12/24 00:49:58;;;;;;;2.03;0.93;;;13.20;77.70;;;;;;6185667;23;20482;-72
2020/12/24 00:52:29;;;;;;;2.07;0.93;;;13.20;78.00;;;;;;6185097;23;20391;-73
2020/12/24 00:54:57;;;;;;;2.20;1.10;;;13.20;78.10;;;;;;6184943;23;20492;-73
2020/12/24 00:57:24;;;;;;;1.83;0.90;;;13.20;78.00;;;;;;6184797;23;20403;-73
2020/12/24 00:59:54;;;;;;;1.87;0.90;;;13.20;78.00;;;;;;6185463;23;20382;-73
2020/12/24 01:05:42;;;;;;;1.67;0.80;;;13.20;78.60;;;;;;6184810;23;20354;-73
2020/12/24 01:08:10;;;;;;;1.87;0.80;;;13.20;78.60;;;;;;6185677;23;20453;-73
2020/12/24 01:14:54;;;;;;;1.47;0.90;;;13.20;78.50;;;;;;6185494;23;20453;-73
2020/12/24 01:17:21;;;;;;;1.50;0.80;;;13.10;78.60;;;;;;6184308;23;20770;-72
2020/12/24 01:20:36;;;;;;;1.50;0.80;;;13.10;78.70;;;;;;6185182;23;20494;-73
2020/12/24 01:23:05;;;;;;;2.00;1.07;;;13.00;79.30;;;;;;6185599;23;20410;-73
2020/12/24 01:25:34;;;;;;;2.50;0.77;;;13.00;79.30;;;;;;6187237;23;20867;-72
2020/12/24 01:28:01;;;;;;;1.80;0.93;;;12.90;79.30;;;;;;6186430;23;20449;-72
2020/12/24 01:30:53;;;;;;;5.47;0.80;;;12.90;79.50;;;;;;6187589;23;20374;-73
2020/12/24 01:33:20;;;;;;;1.57;0.70;;;12.90;79.70;;;;;;6186919;23;20495;-73
2020/12/24 01:35:46;;;;;;;1.87;1.00;;;12.90;79.70;;;;;;6186975;23;20385;-74
2020/12/24 01:38:13;;;;;;;1.40;0.70;;;12.80;79.60;;;;;;6187139;23;20390;-72
2020/12/24 01:40:40;;;;;;;1.70;0.87;;;12.80;79.70;;;;;;6186448;23;20394;-73
2020/12/24 01:46:30;;;;;;;2.00;0.93;;;12.60;80.80;;;;;;6186766;23;20444;-73
2020/12/24 01:49:21;;;;;;;1.60;0.80;;;12.60;80.90;;;;;;6187446;23;20509;-72
2020/12/24 01:51:52;;;;;;;2.88;0.98;;;12.60;81.00;;;;;;6186723;23;20390;-73
2020/12/24 01:54:20;;;;;;;2.27;0.97;;;12.50;81.10;;;;;;6186749;23;20159;-73
2020/12/24 02:00:11;;;;;;;2.60;1.00;;;12.50;81.20;;;;;;6186304;23;20139;-73
2020/12/24 02:02:38;;;;;;;1.63;0.73;;;12.40;81.20;;;;;;6187019;23;20159;-72
2020/12/24 02:05:05;;;;;;;1.30;0.65;;;12.40;81.80;;;;;;6186737;23;20154;-73
2020/12/24 02:10:54;;;;;;;2.35;0.80;;;12.40;82.30;;;;;;6186074;23;20154;-73
2020/12/24 02:16:43;;;;;;;1.73;0.73;;;12.30;82.60;;;;;;6186186;23;20145;-72
2020/12/24 02:19:19;;;;;;;1.70;0.80;;;12.30;82.80;;;;;;6186584;23;20386;-73
2020/12/24 02:21:47;;;;;;;1.70;0.85;;;12.30;83.90;;;;;;6186017;23;20225;-73
2020/12/24 02:24:13;;;;;;;1.55;0.90;;;12.20;83.00;;;;;;6186340;23;20237;-73
2020/12/24 02:26:40;;;;;;;1.50;0.90;;;12.20;83.50;;;;;;6186442;23;20159;-73
2020/12/24 02:29:07;;;;;;;1.52;0.75;;;12.20;83.70;;;;;;6186194;23;20242;-72
2020/12/24 02:32:29;;;;;;;1.30;0.60;;;12.10;83.30;;;;;;6186543;23;20527;-73
2020/12/24 02:34:56;;;;;;;1.40;0.80;;;12.20;82.60;;;;;;6185154;23;20159;-72
2020/12/24 02:37:24;;;;;;;1.20;0.50;;;12.10;80.90;;;;;;6186201;23;20242;-72
2020/12/24 02:40:37;;;;;;;1.20;0.60;;;12.10;79.80;;;;;;6186322;23;20230;-73
2020/12/24 02:43:04;;;;;;;1.30;0.60;;;12.10;78.40;;;;;;6185989;23;20181;-73
2020/12/24 02:46:01;;;;;;;1.30;0.50;;;12.00;77.50;;;;;;6184196;23;20467;-72
2020/12/24 02:48:28;;;;;;;1.20;0.40;;;12.00;75.50;;;;;;6185491;23;20191;-73
2020/12/24 02:50:54;;;;;;;3.15;0.60;;;11.90;75.60;;;;;;6185637;23;20513;-72
2020/12/24 02:56:43;;;;;;;1.30;0.60;;;11.90;74.60;;;;;;6185830;23;20561;-73
2020/12/24 03:02:32;;;;;;;1.20;0.50;;;11.90;73.30;;;;;;6185339;23;20149;-73
2020/12/24 03:05:53;;;;;;;1.20;0.60;;;11.90;72.50;;;;;;6186813;23;20194;-72
2020/12/24 03:08:20;;;;;;;1.40;0.50;;;11.90;72.50;;;;;;6186175;23;20175;-73
2020/12/24 03:10:47;;;;;;;1.20;0.50;;;11.90;71.50;;;;;;6184877;23;20676;-73
2020/12/24 03:13:14;;;;;;;1.20;0.50;;;11.90;71.60;;;;;;6186034;23;20470;-73
2020/12/24 03:15:41;;;;;;;1.17;0.50;;;11.90;71.80;;;;;;6185400;23;20214;-73
2020/12/24 03:21:30;;;;;;;1.40;0.60;;;11.80;72.20;;;;;;6185267;23;20251;-72
2020/12/24 03:27:19;;;;;;;1.30;0.60;;;11.70;71.90;;;;;;6185199;23;20194;-72
2020/12/24 03:29:46;;;;;;;1.20;0.70;;;11.60;72.60;;;;;;6185835;23;20158;-73
2020/12/24 03:32:13;;;;;;;1.50;0.60;;;11.60;72.90;;;;;;6185498;23;20163;-72
2020/12/24 03:34:40;;;;;;;1.20;0.60;;;11.60;73.10;;;;;;6185730;23;20151;-73
2020/12/24 03:37:07;;;;;;;1.20;0.50;;;11.60;73.40;;;;;;6185219;23;20182;-73
2020/12/24 03:39:33;;;;;;;1.20;0.50;;;11.60;74.00;;;;;;6185466;23;20242;-73
2020/12/24 03:42:00;;;;;;;3.15;0.50;;;11.50;75.10;;;;;;6185263;23;20541;-72
2020/12/24 03:44:42;;;;;;;1.20;0.50;;;11.50;75.50;;;;;;6185750;23;20182;-73
2020/12/24 03:50:31;;;;;;;1.20;0.52;;;11.40;76.80;;;;;;6185123;23;20138;-72
2020/12/24 03:52:58;;;;;;;1.30;0.60;;;11.40;77.10;;;;;;6185753;23;20147;-73
2020/12/24 03:55:25;;;;;;;1.40;0.65;;;11.40;77.60;;;;;;6186158;23;20158;-72
2020/12/24 03:57:52;;;;;;;1.30;0.50;;;11.20;77.50;;;;;;6185820;23;20517;-73
2020/12/24 04:00:18;;;;;;;1.20;0.50;;;11.20;77.90;;;;;;6186005;23;20147;-72
2020/12/24 04:02:45;;;;;;;2.00;0.60;;;11.20;78.00;;;;;;6185675;23;20656;-72
2020/12/24 04:05:12;;;;;;;1.20;0.57;;;11.10;78.20;;;;;;6186051;23;20205;-73
2020/12/24 04:07:39;;;;;;;1.40;0.70;;;11.00;78.10;;;;;;6185255;23;20191;-73
2020/12/24 04:10:39;;;;;;;2.95;0.80;;;11.00;78.80;;;;;;6185955;23;20159;-73
2020/12/24 04:13:07;;;;;;;1.20;0.50;;;11.00;79.00;;;;;;6185535;23;20624;-72
2020/12/24 04:15:33;;;;;;;1.45;0.60;;;10.90;79.60;;;;;;6185537;23;20174;-73
2020/12/24 04:18:00;;;;;;;1.42;0.60;;;10.80;79.40;;;;;;6185212;23;20194;-72
2020/12/24 04:20:27;;;;;;;1.40;0.55;;;10.70;79.90;;;;;;6185636;23;20166;-73
2020/12/24 04:22:55;;;;;;;1.58;0.60;;;10.70;80.10;;;;;;6185560;23;20167;-73
2020/12/24 04:25:59;;;;;;;3.17;0.63;;;10.70;80.50;;;;;;6186122;23;20178;-73
2020/12/24 04:28:26;;;;;;;1.40;0.50;;;10.70;80.70;;;;;;6185731;23;20206;-73
2020/12/24 04:30:53;;;;;;;1.27;0.60;;;10.60;80.50;;;;;;6185712;23;20155;-73
2020/12/24 04:33:19;;;;;;;1.60;0.60;;;10.50;80.00;;;;;;6185340;23;20206;-73
2020/12/24 04:35:46;;;;;;;1.20;0.52;;;10.50;80.00;;;;;;6185713;23;20159;-73
2020/12/24 04:38:14;;;;;;;1.20;0.60;;;10.40;79.10;;;;;;6185299;23;20163;-73
2020/12/24 04:40:41;;;;;;;1.40;0.50;;;10.40;79.10;;;;;;6186156;23;20148;-73
2020/12/24 04:43:08;;;;;;;1.20;0.50;;;10.40;79.10;;;;;;6185115;23;20170;-73
2020/12/24 04:45:50;;;;;;;1.38;0.50;;;10.40;79.40;;;;;;6185641;23;20166;-73
2020/12/24 04:48:19;;;;;;;1.20;0.50;;;10.40;79.40;;;;;;6184397;23;20198;-73
2020/12/24 04:50:49;;;;;;;1.20;0.50;;;10.30;79.50;;;;;;6186075;23;20237;-73
2020/12/24 04:53:17;;;;;;;1.20;0.50;;;10.20;78.80;;;;;;6185108;23;20594;-73
2020/12/24 04:55:56;;;;;;;1.20;0.57;;;10.20;78.30;;;;;;6185713;23;20147;-73
2020/12/24 04:58:24;;;;;;;1.42;0.65;;;10.10;78.20;;;;;;6186404;23;20159;-73
2020/12/24 05:00:53;;;;;;;1.20;0.55;;;10.10;77.90;;;;;;6188393;23;20151;-73
2020/12/24 05:03:21;;;;;;;1.25;0.60;;;10.00;76.90;;;;;;6187375;23;20159;-73
2020/12/24 05:05:48;;;;;;;1.20;0.50;;;9.90;78.00;;;;;;6187586;23;20584;-73
2020/12/24 05:08:14;;;;;;;1.20;0.60;;;9.80;77.80;;;;;;6186859;23;20664;-73
2020/12/24 05:10:42;;;;;;;1.20;0.57;;;9.70;77.60;;;;;;6187601;23;20167;-73
2020/12/24 05:13:19;;;;;;;1.20;0.50;;;9.70;77.10;;;;;;6187176;23;20171;-73
2020/12/24 05:15:55;;;;;;;1.35;0.68;;;9.80;77.70;;;;;;6187980;23;20454;-73
2020/12/24 05:18:22;;;;;;;1.20;0.60;;;9.70;77.50;;;;;;6186895;23;20169;-73
2020/12/24 05:20:52;;;;;;;1.20;0.50;;;9.60;77.30;;;;;;6187332;23;20159;-72
2020/12/24 05:23:20;;;;;;;1.20;0.50;;;9.60;78.10;;;;;;6186457;23;20167;-73
2020/12/24 05:26:36;;;;;;;1.30;0.55;;;9.60;76.80;;;;;;6187415;23;20151;-73
2020/12/24 05:29:13;;;;;;;1.20;0.50;;;9.50;77.20;;;;;;6187558;23;20215;-73
2020/12/24 05:31:40;;;;;;;1.55;0.80;;;9.40;75.80;;;;;;6188118;23;20170;-73
2020/12/24 05:34:06;;;;;;;1.83;0.60;;;9.40;76.70;;;;;;6187169;23;20159;-73
2020/12/24 05:36:33;;;;;;;1.30;0.60;;;9.30;76.60;;;;;;6187352;23;20175;-73
2020/12/24 05:42:13;;;;;;;1.52;0.70;;;9.30;76.60;;;;;;6186315;23;20162;-73
2020/12/24 05:48:13;;;;;;;1.30;0.70;;;9.30;76.70;;;;;;6186869;23;20636;-73
2020/12/24 05:51:26;;;;;;;1.50;0.55;;;9.30;77.20;;;;;;6187331;23;20194;-73
2020/12/24 05:53:52;;;;;;;1.30;0.50;;;9.30;77.20;;;;;;6186548;23;20164;-73
2020/12/24 05:56:37;;;;;;;1.30;0.60;;;9.20;76.40;;;;;;6187542;23;20503;-72
2020/12/24 05:59:06;;;;;;;1.40;0.60;;;9.20;76.40;;;;;;6186979;23;20163;-73
2020/12/24 06:01:39;;;;;;;1.23;0.50;;;9.20;76.00;;;;;;6186711;23;20203;-73
2020/12/24 06:04:07;;;;;;;1.50;0.80;;;9.10;75.50;;;;;;6187184;23;20172;-73
2020/12/24 06:06:47;;;;;;;1.50;0.80;;;9.10;75.30;;;;;;6187094;23;20152;-72
2020/12/24 06:09:19;;;;;;;2.25;1.10;;;9.00;75.00;;;;;;6185381;23;20197;-72
2020/12/24 06:11:48;;;;;;;1.50;0.60;;;8.90;75.90;;;;;;6186969;23;20151;-73
2020/12/24 06:17:16;;;;;;;1.38;0.70;;;8.70;75.90;;;;;;6186465;23;20166;-73
2020/12/24 06:19:44;;;;;;;1.40;0.70;;;8.70;75.90;;;;;;6187066;23;20163;-73
2020/12/24 06:22:11;;;;;;;1.60;0.77;;;8.70;75.90;;;;;;6186317;23;20159;-72
2020/12/24 06:28:05;;;;;;;3.38;1.23;;;8.70;76.60;;;;;;6186344;23;20659;-72
2020/12/24 06:31:06;;;;;;;1.85;1.05;;;8.70;76.10;;;;;;6186792;23;20230;-73
2020/12/24 06:33:32;;;;;;;2.22;0.80;;;8.70;76.00;;;;;;6185015;23;20163;-73
2020/12/24 06:39:08;;;;;;;1.33;0.60;;;8.60;76.60;;;;;;6185939;23;20143;-73
2020/12/24 06:44:57;;;;;;;1.98;1.02;;;8.50;74.50;;;;;;6186807;23;20153;-73
2020/12/24 06:47:24;;;;;;;1.77;0.70;;;8.50;75.00;;;;;;6184777;23;20254;-73
2020/12/24 06:53:20;;;;;;;1.30;0.63;;;8.60;73.90;;;;;;6186041;23;20139;-73
2020/12/24 07:02:34;;;;;;;1.30;0.60;;;8.40;71.80;;;;;;6185876;23;20475;-73
2020/12/24 07:08:48;;;;;;;1.30;0.65;;;8.30;71.20;;;;;;6183642;23;20608;-73
2020/12/24 07:11:40;;;;;;;1.50;0.60;;;8.30;70.60;;;;;;6153402;23;20174;-73
2020/12/24 07:21:06;;;;;;;1.60;0.63;;;8.30;69.80;;;;;;6185347;23;20414;-72
2020/12/24 07:23:34;;;;;;;1.85;0.70;;;8.20;68.70;;;;;;6181746;23;20225;-73
2020/12/24 07:26:53;;;;;;;1.75;1.08;;;8.20;69.20;;;;;;6186382;23;20481;-72
2020/12/24 07:30:05;;;;;;;3.05;2.42;;;8.20;68.70;;;;;;6184632;23;20634;-73
2020/12/24 07:32:33;;;;;;;2.10;1.23;;;8.20;68.50;;;;;;6181114;23;20167;-73
2020/12/24 07:35:05;;;;;;;1.40;0.70;;;8.30;68.50;;;;;;6185436;23;20163;-74
2020/12/24 07:43:41;;;;;;;1.50;0.80;;;8.30;69.20;;;;;;6183516;23;20189;-72
2020/12/24 07:46:16;;;;;;;2.10;0.90;;;8.30;68.90;;;;;;6179601;23;20168;-72
2020/12/24 07:48:44;;;;;;;1.20;0.60;;;8.30;69.40;;;;;;6186161;23;20195;-71
2020/12/24 07:51:12;;;;;;;1.27;0.60;;;8.30;69.80;;;;;;6184363;23;20163;-72
2020/12/24 07:53:40;;;;;;;1.60;1.00;;;8.30;69.80;;;;;;6183702;23;20190;-72
2020/12/24 07:56:08;;;;;;;3.05;1.20;;;8.40;70.00;;;;;;6177875;23;20178;-72
2020/12/24 07:58:39;;;;;;;1.60;0.70;;;8.40;69.00;;;;;;6184194;23;20166;-72
2020/12/24 08:01:06;;;;;;;2.05;1.10;;;8.40;68.60;;;;;;6182793;23;20165;-72
2020/12/24 08:03:57;;;;;;;1.45;0.73;;;8.40;68.70;;;;;;6184501;23;20217;-72
2020/12/24 08:06:24;;;;;;;1.83;0.90;;;8.60;68.10;;;;;;6179164;23;20298;-72
2020/12/24 08:09:10;;;;;;;2.42;1.60;;;8.60;68.20;;;;;;6185228;23;20568;-73
2020/12/24 08:11:37;;;;;;;2.00;1.30;;;8.60;68.20;;;;;;6178428;23;20225;-72
2020/12/24 08:14:04;;;;;;;2.05;1.40;;;8.60;68.60;;;;;;6184869;23;20250;-75
2020/12/24 08:16:34;;;;;;;5.05;3.20;;;8.70;69.10;;;;;;6180919;23;20162;-72
2020/12/24 08:19:12;;;;;;;2.80;2.50;;;8.70;69.00;;;;;;6184181;23;20242;-72
2020/12/24 08:28:22;;;;;;;1.50;0.80;;;8.70;66.50;;;;;;6184338;23;20251;-72
2020/12/24 08:30:51;;;;;;;2.10;1.30;;;8.60;66.70;;;;;;6183961;23;20594;-72
2020/12/24 08:34:02;;;;;;;1.52;0.80;;;8.60;66.40;;;;;;6184961;23;20147;-72
2020/12/24 08:43:31;;;;;;;1.80;0.98;;;9.00;66.00;;;;;;6185647;23;20597;-72
2020/12/24 08:46:02;;;;;;;1.90;0.85;;;9.10;65.50;;;;;;6183315;23;20163;-72
2020/12/24 08:48:33;;;;;;;1.90;0.85;;;9.20;64.90;;;;;;6178094;23;20206;-74
2020/12/24 08:54:21;;;;;;;2.50;1.10;;;9.40;63.60;;;;;;6184967;23;20186;-72
2020/12/24 08:56:55;;;;;;;1.40;0.80;;;9.40;64.10;;;;;;6172605;23;20171;-72
2020/12/24 08:59:22;;;;;;;2.28;0.77;;;9.50;64.70;;;;;;6163213;23;20626;-73
2020/12/24 09:01:49;;;;;;;1.90;1.20;;;9.60;64.30;;;;;;6172044;23;20202;-73
2020/12/24 09:04:17;;;;;;;1.95;1.25;;;9.70;63.70;;;;;;6171903;23;20167;-76
2020/12/24 09:06:46;;;;;;;3.05;1.00;;;9.70;63.90;;;;;;6168395;23;20214;-72
2020/12/24 09:09:45;;;;;;;1.50;0.80;;;9.90;64.10;;;;;;6170109;23;20187;-76
2020/12/24 09:12:15;;;;;;;1.50;0.85;;;9.90;63.50;;;;;;6171439;23;20186;-73
2020/12/24 09:14:42;;;;;;;2.15;1.00;;;10.10;62.40;;;;;;6167819;23;20550;-72
2020/12/24 09:17:11;;;;;;;2.17;1.00;;;10.10;62.10;;;;;;6172195;23;20182;-72
2020/12/24 09:19:45;;;;;;;2.10;1.00;;;10.20;61.70;;;;;;6166680;23;20172;-78
2020/12/24 09:22:13;;;;;;;6.57;3.92;;;10.30;61.80;;;;;;6171979;23;20171;-79
2020/12/24 09:24:48;;;;;;;3.42;2.58;;;10.30;60.80;;;;;;6167347;23;20168;-79
2020/12/24 09:27:18;;;;;;;4.28;2.72;;;10.20;59.90;;;;;;6172786;23;20167;-78
2020/12/24 09:29:46;;;;;;;3.83;1.75;;;10.20;59.10;;;;;;6172641;23;20529;-75
2020/12/24 09:32:13;;;;;;;2.10;1.20;;;10.20;59.00;;;;;;6173015;23;20207;-73
2020/12/24 09:34:40;;;;;;;2.67;1.15;;;10.20;59.70;;;;;;6168474;23;20171;-74
2020/12/24 09:37:06;;;;;;;1.70;0.90;;;10.20;59.50;;;;;;6172955;23;20199;-74
2020/12/24 09:39:35;;;;;;;1.73;1.08;;;10.20;58.20;;;;;;6167584;23;20167;-75
2020/12/24 09:42:04;;;;;;;3.60;1.20;;;10.10;58.70;;;;;;6166326;23;20250;-79
2020/12/24 09:44:53;;;;;;;2.90;1.27;;;10.10;58.90;;;;;;6152665;23;20212;-75
2020/12/24 09:50:43;;;;;;;3.42;1.63;;;10.00;58.80;;;;;;6185340;23;20477;-73
2020/12/24 09:53:12;;;;;;;3.72;2.20;;;10.00;59.10;;;;;;6173966;23;20223;-73
2020/12/24 09:55:44;;;;;;;2.80;1.45;;;10.00;58.70;;;;;;6165212;23;20688;-76
2020/12/24 09:58:10;;;;;;;4.20;1.25;;;9.80;60.10;;;;;;6171522;23;20163;-74
2020/12/24 10:00:45;;;;;;;2.25;1.40;;;9.80;61.00;;;;;;6159060;23;20259;-74
2020/12/24 10:03:16;;;;;;;2.35;1.20;;;9.80;61.20;;;;;;6171231;23;20167;-73
2020/12/24 10:05:43;;;;;;;2.97;1.30;;;9.90;61.30;;;;;;6169614;23;20257;-73
2020/12/24 10:08:10;;;;;;;2.22;1.00;;;9.90;61.80;;;;;;6154840;23;20187;-79
2020/12/24 10:10:38;;;;;;;2.08;0.80;;;9.90;61.40;;;;;;6163031;23;20166;-74
2020/12/24 10:13:05;;;;;;;2.15;0.70;;;10.00;60.10;;;;;;6179159;23;20195;-78
2020/12/24 10:15:35;;;;;;;2.17;0.95;;;9.90;60.70;;;;;;6171564;23;20178;-74
2020/12/24 10:18:50;;;;;;;2.20;1.10;;;10.00;59.80;;;;;;6182401;23;20198;-73
2020/12/24 10:21:18;;;;;;;3.45;0.77;;;10.10;60.00;;;;;;6185668;23;20151;-74
2020/12/24 10:23:44;;;;;;;1.50;0.77;;;10.20;60.10;;;;;;6177067;23;20171;-74
2020/12/24 10:36:22;;;;;;;3.20;1.00;;;10.60;59.10;;;;;;6185637;23;20139;-74
2020/12/24 10:38:50;;;;;;;2.20;1.00;;;10.50;58.50;;;;;;6165672;23;20209;-81
2020/12/24 10:41:16;;;;;;;2.08;0.80;;;10.60;58.30;;;;;;6184517;23;20187;-74
2020/12/24 10:43:44;;;;;;;1.52;0.95;;;10.70;59.00;;;;;;6185690;23;20835;-74
2020/12/24 10:46:16;;;;;;;1.60;0.70;;;10.70;58.30;;;;;;6180565;23;20688;-73
2020/12/24 10:48:44;;;;;;;2.05;0.90;;;10.80;58.60;;;;;;6180506;23;20195;-74
2020/12/24 10:51:10;;;;;;;2.05;1.38;;;10.90;58.40;;;;;;6182526;23;20175;-74
2020/12/24 10:53:37;;;;;;;3.03;0.90;;;11.10;58.50;;;;;;6185883;23;20160;-74
2020/12/24 10:56:37;;;;;;;2.00;0.82;;;11.30;58.90;;;;;;6185390;23;20230;-74
2020/12/24 10:59:03;;;;;;;2.50;0.88;;;11.70;57.20;;;;;;6183443;23;20257;-73
2020/12/24 11:01:30;;;;;;;1.70;0.73;;;11.70;56.20;;;;;;6183900;23;20174;-74
2020/12/24 11:17:18;;;;;;;3.28;1.77;;;12.80;55.00;;;;;;6184633;23;20589;-72
2020/12/24 11:19:55;;;;;;;2.15;0.70;;;13.30;51.40;;;;;;6184114;23;20170;-73
2020/12/24 11:22:22;;;;;;;2.20;0.80;;;13.40;51.70;;;;;;6185394;23;20163;-72
2020/12/24 11:25:25;;;;;;;2.30;0.80;;;13.50;50.80;;;;;;6185657;23;20387;-73
2020/12/24 11:27:53;;;;;;;2.00;0.93;;;13.40;49.80;;;;;;6185259;23;20931;-72
2020/12/24 11:30:45;;;;;;;3.10;1.20;;;13.40;50.10;;;;;;6184156;23;20402;-73
2020/12/24 11:33:15;;;;;;;3.83;1.10;;;13.40;50.00;;;;;;6185080;23;20488;-73
2020/12/24 11:42:32;;;;;;;3.57;0.90;;;14.80;47.20;;;;;;6182175;23;20387;-73
2020/12/24 11:48:21;;;;;;;1.87;0.60;;;15.60;44.40;;;;;;6182666;23;20437;-73
2020/12/24 11:50:51;;;;;;;2.83;0.90;;;15.90;44.20;;;;;;6184997;23;20386;-72
2020/12/24 11:53:39;;;;;;;1.90;0.80;;;16.50;43.00;;;;;;6186420;23;20385;-72
2020/12/24 11:56:31;;;;;;;3.33;1.03;;;17.10;43.00;;;;;;6185829;23;20378;-71
2020/12/24 11:58:58;;;;;;;1.80;0.80;;;17.50;41.40;;;;;;6185849;23;20709;-71
2020/12/24 12:05:16;;;;;;;2.20;0.70;;;18.10;39.00;;;;;;6184870;23;20391;-71
2020/12/24 12:07:44;;;;;;;3.20;1.20;;;18.50;38.50;;;;;;6181331;23;20984;-72
2020/12/24 12:10:11;;;;;;;3.63;1.07;;;18.60;37.70;;;;;;6174047;23;20390;-73
2020/12/24 12:12:40;;;;;;;3.83;1.00;;;18.80;37.50;;;;;;6168621;23;20494;-73
2020/12/24 12:15:07;;;;;;;3.10;1.00;;;18.90;35.90;;;;;;6174595;23;20445;-72
2020/12/24 12:17:33;;;;;;;2.67;0.90;;;19.00;35.30;;;;;;6179834;23;20398;-71
2020/12/24 12:20:20;;;;;;;2.40;0.63;;;19.00;35.50;;;;;;6184813;23;20398;-71
2020/12/24 12:26:05;;;;;;;10.50;1.00;;;19.00;35.30;;;;;;6182970;23;20452;-72
2020/12/24 12:31:55;;;;;;;2.40;0.87;;;18.60;34.30;;;;;;6184175;23;20686;-71
2020/12/24 12:34:22;;;;;;;1.80;0.87;;;18.60;35.10;;;;;;6186063;23;20398;-71
2020/12/24 12:40:12;;;;;;;2.73;0.90;;;18.90;35.80;;;;;;6184212;23;20434;-71
2020/12/24 12:43:07;;;;;;;1.90;1.00;;;18.70;34.90;;;;;;6184899;23;20873;-72
2020/12/24 12:45:42;;;;;;;2.77;0.90;;;18.60;34.40;;;;;;6184719;23;20441;-72
2020/12/24 12:48:09;;;;;;;1.40;0.60;;;18.30;34.60;;;;;;6184548;23;20418;-73
2020/12/24 12:50:35;;;;;;;1.80;0.83;;;17.80;35.30;;;;;;6168964;23;20428;-72
2020/12/24 12:53:02;;;;;;;2.37;0.80;;;17.40;35.70;;;;;;6174375;23;20429;-72
2020/12/24 12:55:35;;;;;;;2.20;0.60;;;16.90;36.60;;;;;;6170318;23;20409;-76
2020/12/24 12:58:07;;;;;;;2.43;0.97;;;16.50;36.90;;;;;;6174872;23;20394;-72
2020/12/24 13:00:38;;;;;;;5.97;1.00;;;16.30;37.30;;;;;;6169285;23;20709;-72
2020/12/24 13:03:10;;;;;;;2.87;0.80;;;16.00;37.40;;;;;;6175110;23;20399;-71
2020/12/24 13:05:39;;;;;;;1.90;0.77;;;15.70;38.60;;;;;;6168696;23;20417;-72
2020/12/24 13:08:06;;;;;;;3.63;1.00;;;15.80;39.40;;;;;;6173725;23;20441;-72
2020/12/24 13:10:32;;;;;;;1.40;0.60;;;15.70;39.40;;;;;;6167857;23;20403;-72
2020/12/24 13:13:00;;;;;;;4.90;1.17;;;15.80;39.60;;;;;;6173556;23;20402;-72
2020/12/24 13:15:35;;;;;;;1.60;0.83;;;15.50;39.30;;;;;;6169804;23;20399;-76
2020/12/24 13:18:01;;;;;;;1.43;0.77;;;15.20;39.90;;;;;;6174555;23;20907;-72
2020/12/24 13:20:28;;;;;;;5.00;1.00;;;14.80;40.10;;;;;;6171202;23;20688;-76
2020/12/24 13:22:55;;;;;;;2.27;1.00;;;14.50;41.00;;;;;;6175631;23;20437;-72
2020/12/24 13:25:21;;;;;;;3.33;0.83;;;14.20;41.10;;;;;;6173564;23;20780;-76
2020/12/24 13:27:48;;;;;;;5.87;1.00;;;14.00;42.00;;;;;;6174215;23;20483;-71
2020/12/24 13:30:15;;;;;;;4.03;1.00;;;13.90;42.70;;;;;;6174942;23;20872;-75
2020/12/24 13:32:42;;;;;;;4.70;1.10;;;13.80;43.00;;;;;;6171273;23;20417;-72
2020/12/24 13:35:10;;;;;;;3.40;1.60;;;13.80;43.40;;;;;;6176330;23;20426;-72
2020/12/24 13:37:37;;;;;;;3.70;1.50;;;13.60;43.90;;;;;;6170493;23;20713;-72
2020/12/24 13:40:03;;;;;;;2.33;1.40;;;13.50;44.60;;;;;;6175542;23;20436;-72
2020/12/24 13:42:32;;;;;;;1.70;0.83;;;13.40;45.20;;;;;;6169230;23;20449;-73
2020/12/24 13:44:59;;;;;;;1.40;0.60;;;13.30;45.20;;;;;;6175674;23;20440;-72
2020/12/24 13:47:26;;;;;;;5.85;1.00;;;13.00;45.90;;;;;;6171654;23;20398;-76
2020/12/24 13:49:54;;;;;;;2.20;0.93;;;12.90;46.90;;;;;;6174533;23;20203;-72
2020/12/24 13:52:23;;;;;;;1.60;0.60;;;12.90;47.40;;;;;;6173158;23;20900;-76
2020/12/24 13:54:49;;;;;;;3.53;1.17;;;12.80;47.70;;;;;;6173728;23;20407;-72
2020/12/24 13:57:16;;;;;;;1.60;0.93;;;12.70;48.10;;;;;;6174754;23;20163;-75
2020/12/24 13:59:42;;;;;;;3.05;0.88;;;12.60;48.10;;;;;;6172763;23;20197;-73
2020/12/24 14:02:09;;;;;;;3.03;0.90;;;12.60;52.10;;;;;;6181956;23;20206;-72
2020/12/24 14:04:52;;;;;;;1.67;0.75;;;12.60;50.50;;;;;;6186764;23;20167;-72
2020/12/24 14:10:13;;;;;;;2.25;1.00;;;12.50;49.80;;;;;;6185078;23;20197;-72
2020/12/24 14:16:02;;;;;;;1.80;1.00;;;12.20;50.70;;;;;;6174832;23;20158;-72
2020/12/24 14:18:32;;;;;;;2.25;1.33;;;12.00;51.10;;;;;;6170075;23;20179;-76
2020/12/24 14:21:00;;;;;;;2.03;0.80;;;12.00;51.50;;;;;;6184652;23;20716;-72
2020/12/24 14:23:29;;;;;;;1.60;0.90;;;11.80;51.60;;;;;;6186723;23;20237;-72
2020/12/24 14:25:58;;;;;;;1.75;0.70;;;11.70;52.00;;;;;;6186194;23;20602;-72
2020/12/24 14:28:26;;;;;;;1.60;0.70;;;11.60;52.50;;;;;;6170409;23;20704;-76
2020/12/24 14:30:53;;;;;;;1.52;0.80;;;11.50;52.70;;;;;;6173775;23;20194;-72
2020/12/24 14:33:28;;;;;;;1.63;0.70;;;11.40;53.20;;;;;;6173076;23;20473;-76
2020/12/24 14:35:54;;;;;;;3.17;0.98;;;11.30;53.10;;;;;;6173504;23;20489;-72
2020/12/24 14:38:22;;;;;;;1.70;0.80;;;11.30;53.30;;;;;;6171229;23;20173;-76
2020/12/24 14:40:53;;;;;;;1.70;1.13;;;11.10;54.30;;;;;;6172224;23;20637;-72
2020/12/24 14:43:19;;;;;;;1.60;0.70;;;11.00;54.10;;;;;;6173301;23;20174;-76
2020/12/24 14:45:54;;;;;;;2.03;0.90;;;11.00;54.30;;;;;;6172149;23;20171;-72
2020/12/24 14:48:22;;;;;;;3.15;1.00;;;10.90;55.00;;;;;;6171798;23;20213;-74
2020/12/24 14:50:48;;;;;;;1.73;1.00;;;10.90;55.30;;;;;;6173461;23;20171;-72
2020/12/24 14:53:15;;;;;;;4.30;1.00;;;10.90;55.50;;;;;;6174877;23;20203;-76
2020/12/24 14:55:42;;;;;;;1.65;0.70;;;10.90;55.80;;;;;;6171229;23;20164;-72
2020/12/24 14:58:09;;;;;;;1.50;0.80;;;10.80;56.00;;;;;;6174765;23;20249;-72
2020/12/24 15:00:35;;;;;;;2.22;1.17;;;10.70;55.90;;;;;;6169602;23;20167;-72
2020/12/24 15:03:02;;;;;;;2.60;1.08;;;10.60;56.40;;;;;;6174814;23;20171;-72
2020/12/24 15:05:28;;;;;;;2.55;0.90;;;10.50;56.60;;;;;;6169888;23;20171;-76
2020/12/24 15:07:57;;;;;;;4.68;0.98;;;10.40;56.60;;;;;;6174665;23;20167;-72
2020/12/24 15:10:28;;;;;;;1.55;0.70;;;10.30;56.80;;;;;;6172040;23;20163;-76
2020/12/24 15:12:55;;;;;;;1.85;0.80;;;10.30;56.80;;;;;;6174014;23;20163;-72
2020/12/24 15:15:22;;;;;;;3.00;1.13;;;10.30;57.10;;;;;;6172274;23;20203;-75
2020/12/24 15:17:49;;;;;;;1.73;0.90;;;10.20;57.50;;;;;;6173237;23;20175;-72
2020/12/24 15:20:15;;;;;;;2.90;0.82;;;10.20;57.00;;;;;;6174421;23;20205;-75
2020/12/24 15:22:42;;;;;;;1.85;0.60;;;10.10;57.10;;;;;;6170334;23;20174;-73
2020/12/24 15:25:08;;;;;;;2.88;0.73;;;10.00;57.10;;;;;;6173854;23;20625;-72
2020/12/24 15:27:35;;;;;;;1.30;0.77;;;10.00;57.30;;;;;;6170403;23;20167;-72
2020/12/24 15:30:03;;;;;;;3.05;0.90;;;9.90;58.30;;;;;;6174409;23;20187;-72
2020/12/24 15:32:29;;;;;;;1.60;0.90;;;9.90;58.30;;;;;;6169071;23;20167;-77
2020/12/24 15:34:56;;;;;;;3.70;1.35;;;9.90;58.60;;;;;;6174389;23;20267;-72
2020/12/24 15:37:24;;;;;;;1.60;1.00;;;9.90;58.70;;;;;;6172240;23;20217;-76
2020/12/24 15:39:51;;;;;;;1.75;0.90;;;9.90;58.80;;;;;;6172922;23;20194;-72
2020/12/24 15:42:17;;;;;;;4.07;1.60;;;9.90;58.80;;;;;;6172598;23;20618;-76
2020/12/24 15:44:45;;;;;;;1.90;1.20;;;9.90;58.80;;;;;;6171564;23;20258;-72
2020/12/24 15:47:12;;;;;;;1.50;1.00;;;9.80;59.00;;;;;;6174541;23;20210;-72
2020/12/24 15:49:39;;;;;;;2.20;1.10;;;9.80;59.20;;;;;;6169046;23;20716;-73
2020/12/24 15:52:05;;;;;;;2.92;1.15;;;9.80;59.10;;;;;;6174217;23;20202;-72
2020/12/24 15:54:32;;;;;;;1.60;0.90;;;9.80;59.00;;;;;;6169395;23;20170;-71
2020/12/24 15:56:59;;;;;;;1.98;0.88;;;9.80;59.10;;;;;;6174670;23;20198;-72
2020/12/24 15:59:27;;;;;;;1.65;0.82;;;9.80;59.10;;;;;;6170939;23;20202;-75
2020/12/24 16:01:54;;;;;;;1.40;0.77;;;9.80;59.10;;;;;;6173900;23;20206;-71
2020/12/24 16:04:22;;;;;;;1.73;0.85;;;9.70;59.20;;;;;;6172619;23;20167;-76
2020/12/24 16:06:49;;;;;;;2.83;1.38;;;9.60;59.30;;;;;;6172378;23;20260;-72
2020/12/24 16:09:15;;;;;;;2.90;0.95;;;9.60;59.60;;;;;;6173506;23;20218;-76
2020/12/24 16:11:42;;;;;;;1.83;0.75;;;9.50;59.80;;;;;;6170481;23;20170;-73
2020/12/24 16:14:10;;;;;;;2.05;0.90;;;9.60;60.40;;;;;;6174126;23;20167;-71
2020/12/24 16:16:41;;;;;;;3.85;1.73;;;9.50;60.50;;;;;;6169414;23;20173;-72
2020/12/24 16:19:10;;;;;;;1.67;0.90;;;9.60;61.00;;;;;;6170088;23;20174;-71